createdAt,value
2023-04-05T00:02:21.282Z,8.07
2023-04-05T00:04:52.190Z,7.57
2023-04-05T00:07:19.322Z,7.70
2023-04-05T00:09:46.310Z,7.67
2023-04-05T00:12:13.247Z,9.07
2023-04-05T00:14:41.178Z,6.63
2023-04-05T00:17:11.015Z,6.63
2023-04-05T00:19:39.406Z,6.43
2023-04-05T00:22:05.903Z,7.07
2023-04-05T00:24:33.979Z,6.50
2023-04-05T00:27:01.378Z,6.97
2023-04-05T00:29:28.437Z,4.87
2023-04-05T00:31:56.009Z,9.27
2023-04-05T00:34:22.396Z,7.60
2023-04-05T00:36:49.200Z,7.70
2023-04-05T00:39:15.667Z,10.60
2023-04-05T00:41:42.141Z,8.23
2023-04-05T00:44:08.787Z,8.90
2023-04-05T00:46:36.502Z,9.07
2023-04-05T00:49:04.531Z,9.40
2023-04-05T00:51:33.635Z,7.17
2023-04-05T00:54:01.416Z,9.63
2023-04-05T00:56:28.323Z,10.93
2023-04-05T00:58:54.936Z,8.07
2023-04-05T01:01:24.976Z,10.43
2023-04-05T01:04:02.660Z,8.47
2023-04-05T01:06:48.455Z,7.47
2023-04-05T01:09:45.533Z,7.87
2023-04-05T01:12:17.423Z,8.67
2023-04-05T01:14:45.496Z,8.73
2023-04-05T01:17:12.100Z,9.37
2023-04-05T01:19:42.111Z,9.83
2023-04-05T01:22:55.421Z,9.40
2023-04-05T01:25:47.051Z,13.30
2023-04-05T01:28:29.468Z,10.27
2023-04-05T01:31:15.566Z,10.30
2023-04-05T01:33:53.822Z,10.13
2023-04-05T01:36:27.243Z,11.23
2023-04-05T01:38:54.336Z,8.63
2023-04-05T01:41:22.111Z,9.10
2023-04-05T01:43:49.079Z,7.87
2023-04-05T01:46:16.069Z,13.07
2023-04-05T01:48:43.676Z,9.40
2023-04-05T01:51:12.168Z,8.80
2023-04-05T01:53:39.417Z,7.87
2023-04-05T01:56:06.387Z,9.80
2023-04-05T01:58:33.295Z,7.87
2023-04-05T02:01:00.010Z,10.97
2023-04-05T02:03:27.047Z,7.73
2023-04-05T02:05:54.613Z,9.27
2023-04-05T02:08:21.283Z,7.67
2023-04-05T02:10:47.998Z,9.30
2023-04-05T02:13:14.515Z,8.90
2023-04-05T02:15:41.049Z,11.00
2023-04-05T02:18:08.057Z,10.83
2023-04-05T02:20:35.106Z,9.70
2023-04-05T02:23:01.964Z,9.13
2023-04-05T02:25:28.529Z,9.10
2023-04-05T02:27:55.374Z,8.90
2023-04-05T02:30:21.785Z,9.07
2023-04-05T02:32:48.383Z,8.60
2023-04-05T02:35:17.158Z,7.90
2023-04-05T02:37:43.616Z,11.73
2023-04-05T02:40:14.879Z,9.40
2023-04-05T02:42:41.936Z,9.27
2023-04-05T02:45:08.825Z,7.73
2023-04-05T02:47:35.307Z,7.43
2023-04-05T02:50:01.773Z,10.63
2023-04-05T02:52:28.195Z,7.37
2023-04-05T02:54:54.620Z,7.77
2023-04-05T02:57:21.334Z,10.73
2023-04-05T02:59:47.823Z,9.03
2023-04-05T03:02:14.199Z,10.33
2023-04-05T03:04:41.044Z,11.43
2023-04-05T03:07:08.157Z,9.60
2023-04-05T03:09:34.708Z,8.33
2023-04-05T03:12:03.598Z,9.93
2023-04-05T03:14:31.561Z,7.67
2023-04-05T03:16:58.453Z,10.47
2023-04-05T03:19:26.086Z,8.57
2023-04-05T03:21:53.235Z,9.70
2023-04-05T03:24:19.593Z,8.27
2023-04-05T03:26:46.905Z,9.77
2023-04-05T03:29:13.372Z,7.57
2023-04-05T03:31:40.325Z,11.50
2023-04-05T03:34:07.027Z,7.23
2023-04-05T03:36:41.883Z,8.03
2023-04-05T03:39:10.376Z,8.43
2023-04-05T03:41:37.908Z,10.60
2023-04-05T03:44:04.791Z,8.87
2023-04-05T03:46:31.331Z,7.07
2023-04-05T03:48:58.944Z,14.77
2023-04-05T03:51:25.708Z,7.77
2023-04-05T03:53:52.086Z,11.33
2023-04-05T03:56:18.709Z,9.00
2023-04-05T03:58:45.518Z,9.37
2023-04-05T04:01:12.529Z,7.90
2023-04-05T04:03:39.138Z,8.43
2023-04-05T04:06:06.857Z,9.33
2023-04-05T04:08:33.532Z,8.73
2023-04-05T04:11:00.323Z,8.97
2023-04-05T04:13:26.692Z,8.10
2023-04-05T04:15:53.149Z,9.60
2023-04-05T04:18:19.550Z,8.47
2023-04-05T04:20:46.123Z,9.13
2023-04-05T04:23:14.388Z,7.40
2023-04-05T04:25:42.229Z,8.80
2023-04-05T04:28:09.401Z,11.03
2023-04-05T04:30:38.565Z,9.67
2023-04-05T04:33:07.451Z,9.87
2023-04-05T04:35:38.753Z,10.63
2023-04-05T04:38:06.205Z,10.07
2023-04-05T04:40:38.899Z,11.23
2023-04-05T04:43:18.838Z,9.70
2023-04-05T04:45:50.123Z,11.73
2023-04-05T04:48:16.950Z,8.40
2023-04-05T04:50:44.672Z,10.60
2023-04-05T04:53:11.920Z,12.43
2023-04-05T04:55:38.948Z,13.10
2023-04-05T04:58:09.832Z,12.20
2023-04-05T05:00:39.410Z,10.90
2023-04-05T05:03:08.243Z,11.30
2023-04-05T05:05:34.659Z,12.27
2023-04-05T05:08:01.819Z,13.20
2023-04-05T05:10:28.292Z,12.43
2023-04-05T05:12:54.668Z,11.77
2023-04-05T05:15:21.142Z,11.80
2023-04-05T05:17:47.758Z,13.60
2023-04-05T05:20:14.245Z,11.80
2023-04-05T05:22:40.813Z,11.60
2023-04-05T05:25:08.700Z,11.73
2023-04-05T05:27:35.276Z,11.83
2023-04-05T05:30:02.003Z,13.53
2023-04-05T05:32:28.512Z,12.50
2023-04-05T05:34:54.976Z,13.23
2023-04-05T05:37:32.319Z,12.20
2023-04-05T05:39:59.512Z,13.07
2023-04-05T05:42:27.235Z,12.10
2023-04-05T05:44:53.900Z,13.73
2023-04-05T05:47:21.112Z,12.00
2023-04-05T05:49:49.498Z,14.50
2023-04-05T05:52:19.290Z,12.70
2023-04-05T05:54:46.845Z,10.97
2023-04-05T05:57:13.385Z,12.80
2023-04-05T05:59:39.805Z,16.20
2023-04-05T06:02:06.338Z,11.93
2023-04-05T06:04:34.174Z,10.57
2023-04-05T06:07:01.692Z,15.37
2023-04-05T06:09:28.977Z,11.40
2023-04-05T06:11:57.296Z,10.73
2023-04-05T06:14:25.115Z,19.23
2023-04-05T06:16:52.143Z,13.77
2023-04-05T06:19:18.973Z,9.07
2023-04-05T06:21:45.482Z,9.40
2023-04-05T06:24:11.824Z,8.48
2023-04-05T06:26:39.336Z,8.70
2023-04-05T06:29:06.117Z,7.60
2023-04-05T06:31:34.502Z,7.25
2023-04-05T06:34:01.753Z,6.07
2023-04-05T06:36:32.117Z,7.28
2023-04-05T06:38:59.653Z,7.20
2023-04-05T06:41:27.726Z,5.75
2023-04-05T06:43:55.514Z,9.75
2023-04-05T06:46:22.461Z,6.55
2023-04-05T06:48:49.893Z,7.78
2023-04-05T06:51:16.910Z,8.25
2023-04-05T06:53:43.380Z,8.23
2023-04-05T06:56:09.884Z,7.93
2023-04-05T06:58:37.491Z,4.90
2023-04-05T07:01:04.121Z,6.85
2023-04-05T07:03:31.058Z,7.28
2023-04-05T07:06:01.637Z,5.43
2023-04-05T07:08:31.257Z,6.15
2023-04-05T07:10:58.194Z,5.20
2023-04-05T07:13:25.174Z,4.65
2023-04-05T07:15:52.526Z,4.72
2023-04-05T07:18:19.427Z,5.07
2023-04-05T07:20:47.993Z,5.70
2023-04-05T07:23:14.522Z,11.88
2023-04-05T07:25:41.442Z,7.18
2023-04-05T07:28:07.773Z,16.02
2023-04-05T07:30:36.797Z,11.95
2023-04-05T07:33:03.469Z,7.32
2023-04-05T07:35:30.251Z,15.70
2023-04-05T07:37:56.779Z,8.30
2023-04-05T07:40:23.420Z,6.25
2023-04-05T07:42:50.042Z,6.25
2023-04-05T07:45:17.610Z,5.10
2023-04-05T07:47:43.978Z,6.15
2023-04-05T07:50:12.079Z,5.68
2023-04-05T07:52:38.426Z,6.03
2023-04-05T07:55:05.156Z,6.50
2023-04-05T07:57:33.569Z,8.23
2023-04-05T07:59:59.978Z,6.95
2023-04-05T08:02:27.515Z,5.43
2023-04-05T08:04:53.906Z,8.45
2023-04-05T08:07:21.441Z,6.38
2023-04-05T08:09:49.050Z,5.90
2023-04-05T08:12:15.617Z,6.63
2023-04-05T08:14:42.014Z,4.72
2023-04-05T08:17:08.470Z,6.10
2023-04-05T08:19:34.903Z,8.00
2023-04-05T08:22:01.360Z,8.68
2023-04-05T08:24:27.939Z,5.18
2023-04-05T08:26:54.393Z,6.05
2023-04-05T08:29:20.900Z,5.72
2023-04-05T08:31:47.296Z,5.60
2023-04-05T08:34:13.699Z,6.53
2023-04-05T08:36:40.352Z,7.25
2023-04-05T08:39:06.801Z,7.32
2023-04-05T08:41:41.341Z,9.20
2023-04-05T08:44:10.360Z,6.53
2023-04-05T08:46:36.983Z,7.18
2023-04-05T08:49:08.616Z,7.47
2023-04-05T08:51:41.770Z,6.43
2023-04-05T08:54:08.268Z,6.38
2023-04-05T08:56:36.443Z,7.07
2023-04-05T08:59:06.734Z,5.70
2023-04-05T09:01:37.376Z,6.73
2023-04-05T09:04:24.333Z,8.40
2023-04-05T09:06:52.102Z,4.85
2023-04-05T09:09:20.764Z,5.05
2023-04-05T09:11:48.065Z,5.65
2023-04-05T09:14:14.947Z,6.25
2023-04-05T09:16:42.631Z,7.13
2023-04-05T09:19:10.448Z,5.32
2023-04-05T09:21:59.826Z,6.25
2023-04-05T09:24:37.624Z,8.20
2023-04-05T09:27:06.245Z,6.75
2023-04-05T09:29:32.653Z,6.13
2023-04-05T09:32:01.502Z,5.28
2023-04-05T09:34:30.387Z,6.47
2023-04-05T09:36:56.947Z,5.38
2023-04-05T09:39:33.483Z,8.88
2023-04-05T09:42:13.282Z,6.97
2023-04-05T09:44:57.265Z,6.78
2023-04-05T09:47:27.237Z,5.03
2023-04-05T09:49:53.977Z,6.35
2023-04-05T09:52:25.951Z,6.32
2023-04-05T09:54:55.466Z,5.63
2023-04-05T09:57:23.670Z,4.50
2023-04-05T09:59:50.171Z,6.40
2023-04-05T10:02:16.825Z,5.07
2023-04-05T10:04:47.034Z,5.40
2023-04-05T10:07:14.874Z,5.55
2023-04-05T10:09:44.497Z,5.50
2023-04-05T10:12:13.967Z,5.53
2023-04-05T10:14:40.581Z,5.00
2023-04-05T10:17:16.898Z,3.67
2023-04-05T10:20:05.015Z,4.15
2023-04-05T10:22:57.722Z,7.10
2023-04-05T10:25:45.581Z,4.25
2023-04-05T10:28:34.466Z,8.10
2023-04-05T10:31:03.702Z,4.30
2023-04-05T10:33:42.334Z,7.20
2023-04-05T10:36:37.921Z,5.55
2023-04-05T10:39:13.164Z,5.88
2023-04-05T10:41:49.646Z,6.88
2023-04-05T10:44:25.842Z,6.07
2023-04-05T10:46:54.188Z,7.40
2023-04-05T10:49:34.202Z,5.18
2023-04-05T10:52:02.089Z,5.22
2023-04-05T10:54:28.755Z,5.30
2023-04-05T10:56:56.600Z,5.73
2023-04-05T10:59:23.184Z,7.90
2023-04-05T11:01:49.685Z,7.07
2023-04-05T11:04:17.066Z,7.00
2023-04-05T11:06:47.673Z,6.03
2023-04-05T11:09:16.452Z,5.47
2023-04-05T11:11:49.235Z,7.40
2023-04-05T11:14:34.390Z,6.87
2023-04-05T11:17:01.295Z,4.87
2023-04-05T11:19:43.140Z,6.10
2023-04-05T11:22:14.181Z,5.67
2023-04-05T11:24:57.654Z,6.63
2023-04-05T11:27:34.347Z,7.37
2023-04-05T11:30:01.990Z,4.93
2023-04-05T11:32:43.224Z,6.03
2023-04-05T11:35:15.050Z,4.50
2023-04-05T11:38:01.710Z,5.93
2023-04-05T11:40:36.966Z,5.53
2023-04-05T11:43:08.442Z,4.70
2023-04-05T11:45:36.505Z,8.33
2023-04-05T11:48:11.318Z,4.70
2023-04-05T11:50:41.904Z,6.27
2023-04-05T11:53:16.132Z,8.30
2023-04-05T11:55:48.087Z,8.07
2023-04-05T11:58:18.155Z,3.93
2023-04-05T12:00:45.945Z,7.00
2023-04-05T12:03:14.774Z,6.47
2023-04-05T12:05:48.090Z,5.07
2023-04-05T12:08:14.566Z,8.40
2023-04-05T12:10:41.057Z,4.60
2023-04-05T12:13:07.424Z,5.78
2023-04-05T12:15:37.934Z,6.03
2023-04-05T12:18:04.799Z,6.57
2023-04-05T12:20:31.337Z,4.77
2023-04-05T12:22:57.945Z,6.80
2023-04-05T12:25:24.827Z,4.30
2023-04-05T12:27:51.239Z,5.17
2023-04-05T12:30:23.204Z,5.40
2023-04-05T12:32:55.936Z,9.13
2023-04-05T12:35:27.043Z,5.80
2023-04-05T12:37:53.505Z,5.00
2023-04-05T12:40:23.526Z,4.23
2023-04-05T12:42:51.560Z,7.95
2023-04-05T12:45:18.980Z,4.53
2023-04-05T12:48:03.581Z,7.47
2023-04-05T12:50:31.265Z,5.18
2023-04-05T12:53:01.982Z,5.70
2023-04-05T12:55:29.540Z,7.03
2023-04-05T12:57:59.596Z,4.28
2023-04-05T13:00:28.045Z,4.85
2023-04-05T13:02:56.268Z,5.00
2023-04-05T13:05:28.326Z,6.57
2023-04-05T13:07:56.157Z,5.33
2023-04-05T13:10:25.122Z,5.70
2023-04-05T13:12:51.629Z,8.27
2023-04-05T13:15:18.162Z,5.73
2023-04-05T13:17:45.559Z,5.00
2023-04-05T13:20:12.342Z,4.53
2023-04-05T13:22:39.196Z,4.87
2023-04-05T13:25:07.013Z,7.17
2023-04-05T13:27:33.782Z,5.07
2023-04-05T13:30:00.252Z,5.53
2023-04-05T13:32:27.514Z,3.63
2023-04-05T13:34:54.991Z,4.47
2023-04-05T13:37:21.890Z,6.77
2023-04-05T13:39:48.322Z,8.70
2023-04-05T13:42:14.994Z,7.17
2023-04-05T13:44:41.715Z,6.40
2023-04-05T13:47:08.362Z,5.43
2023-04-05T13:49:35.966Z,8.37
2023-04-05T13:52:02.549Z,4.83
2023-04-05T13:54:28.934Z,4.33
2023-04-05T13:56:56.304Z,3.63
2023-04-05T13:59:22.732Z,4.47
2023-04-05T14:01:49.301Z,3.87
2023-04-05T14:04:16.248Z,6.70
2023-04-05T14:06:42.933Z,4.30
2023-04-05T14:09:11.223Z,2.93
2023-04-05T14:11:38.702Z,3.07
2023-04-05T14:14:05.357Z,4.93
2023-04-05T14:16:31.938Z,2.63
2023-04-05T14:18:58.600Z,3.83
2023-04-05T14:21:25.806Z,5.40
2023-04-05T14:23:56.785Z,3.43
2023-04-05T14:26:26.160Z,3.30
2023-04-05T14:28:53.025Z,3.77
2023-04-05T14:31:19.538Z,4.20
2023-04-05T14:33:46.160Z,3.07
2023-04-05T14:36:15.718Z,4.50
2023-04-05T14:38:42.036Z,4.80
2023-04-05T14:41:10.437Z,3.13
2023-04-05T14:43:37.972Z,3.95
2023-04-05T14:46:04.731Z,5.93
2023-04-05T14:48:31.901Z,4.33
2023-04-05T14:51:01.358Z,3.65
2023-04-05T14:53:27.864Z,3.85
2023-04-05T14:55:54.383Z,4.53
2023-04-05T14:58:21.093Z,4.78
2023-04-05T15:00:48.832Z,4.68
2023-04-05T15:03:15.914Z,3.50
2023-04-05T15:05:42.880Z,4.22
2023-04-05T15:08:09.401Z,7.53
2023-04-05T15:10:36.121Z,4.05
2023-04-05T15:13:02.448Z,3.05
2023-04-05T15:15:32.737Z,3.50
2023-04-05T15:17:59.307Z,6.22
2023-04-05T15:20:27.079Z,4.40
2023-04-05T15:22:53.706Z,7.77
2023-04-05T15:25:20.329Z,8.97
2023-04-05T15:27:46.705Z,5.27
2023-04-05T15:30:13.689Z,4.70
2023-04-05T15:32:40.293Z,4.97
2023-04-05T15:35:07.001Z,13.53
2023-04-05T15:37:33.422Z,8.77
2023-04-05T15:40:01.189Z,8.00
2023-04-05T15:42:29.618Z,5.70
2023-04-05T15:44:56.984Z,6.00
2023-04-05T15:47:23.436Z,5.13
2023-04-05T15:49:51.292Z,4.37
2023-04-05T15:52:18.025Z,6.00
2023-04-05T15:54:44.464Z,3.08
2023-04-05T15:57:11.473Z,2.60
2023-04-05T15:59:38.081Z,4.30
2023-04-05T16:02:04.758Z,3.93
2023-04-05T16:04:31.254Z,3.05
2023-04-05T16:06:58.698Z,5.03
2023-04-05T16:09:25.195Z,3.67
2023-04-05T16:11:51.732Z,4.23
2023-04-05T16:14:19.055Z,5.33
2023-04-05T16:16:53.578Z,5.97
2023-04-05T16:19:24.201Z,4.73
2023-04-05T16:21:51.242Z,4.25
2023-04-05T16:24:17.709Z,7.60
2023-04-05T16:26:44.118Z,4.80
2023-04-05T16:29:10.519Z,3.67
2023-04-05T16:31:37.947Z,4.53
2023-04-05T16:34:04.562Z,5.93
2023-04-05T16:36:31.071Z,5.60
2023-04-05T16:38:57.478Z,4.27
2023-04-05T16:41:23.955Z,4.77
2023-04-05T16:43:51.416Z,3.70
2023-04-05T16:46:18.551Z,4.83
2023-04-05T16:48:45.442Z,6.40
2023-04-05T16:51:13.136Z,5.30
2023-04-05T16:53:39.691Z,4.57
2023-04-05T16:56:07.283Z,6.00
2023-04-05T16:58:33.692Z,5.53
2023-04-05T17:01:00.558Z,5.23
2023-04-05T17:03:27.380Z,5.93
2023-04-05T17:05:53.919Z,5.03
2023-04-05T17:08:20.326Z,5.17
2023-04-05T17:10:47.849Z,5.67
2023-04-05T17:13:14.947Z,4.87
2023-04-05T17:15:41.530Z,5.97
2023-04-05T17:18:08.165Z,4.83
2023-04-05T17:20:34.713Z,6.33
2023-04-05T17:23:01.139Z,6.67
2023-04-05T17:25:27.582Z,5.03
2023-04-05T17:27:53.956Z,6.70
2023-04-05T17:30:20.653Z,5.53
2023-04-05T17:32:49.129Z,7.53
2023-04-05T17:35:16.028Z,9.40
2023-04-05T17:37:42.371Z,9.37
2023-04-05T17:40:09.434Z,6.60
2023-04-05T17:42:35.987Z,6.43
2023-04-05T17:45:03.568Z,6.70
2023-04-05T17:47:30.410Z,5.83
2023-04-05T17:49:57.317Z,9.27
2023-04-05T17:52:23.813Z,6.90
2023-04-05T17:54:52.253Z,8.07
2023-04-05T17:57:18.610Z,14.00
2023-04-05T17:59:45.279Z,10.87
2023-04-05T18:02:11.972Z,9.80
2023-04-05T18:04:39.511Z,10.53
2023-04-05T18:07:07.601Z,10.23
2023-04-05T18:09:35.397Z,8.97
2023-04-05T18:12:02.564Z,9.20
2023-04-05T18:14:29.070Z,7.63
2023-04-05T18:16:55.391Z,10.60
2023-04-05T18:19:21.836Z,13.13
2023-04-05T18:21:48.189Z,11.27
2023-04-05T18:24:14.845Z,9.73
2023-04-05T18:26:45.933Z,10.70
2023-04-05T18:29:12.880Z,11.10
2023-04-05T18:31:40.401Z,9.90
2023-04-05T18:34:07.016Z,8.80
2023-04-05T18:36:33.609Z,8.50
2023-04-05T18:39:03.694Z,10.57
2023-04-05T18:41:30.503Z,11.70
2023-04-05T18:43:59.149Z,8.30
2023-04-05T18:46:26.324Z,8.47
2023-04-05T18:48:56.207Z,11.33
2023-04-05T18:51:23.396Z,12.13
2023-04-05T18:53:52.006Z,9.13
2023-04-05T18:56:19.541Z,8.20
2023-04-05T18:58:46.371Z,16.27
2023-04-05T19:01:17.434Z,15.33
2023-04-05T19:03:47.593Z,16.00
2023-04-05T19:06:14.581Z,19.50
2023-04-05T19:08:41.272Z,19.60
2023-04-05T19:11:08.210Z,15.13
2023-04-05T19:13:34.604Z,11.93
2023-04-05T19:16:03.316Z,11.57
2023-04-05T19:18:29.959Z,11.87
2023-04-05T19:20:59.291Z,11.63
2023-04-05T19:23:26.695Z,14.03
2023-04-05T19:25:57.366Z,12.97
2023-04-05T19:28:24.670Z,9.77
2023-04-05T19:30:51.219Z,8.97
2023-04-05T19:33:19.584Z,10.13
2023-04-05T19:35:47.556Z,10.57
2023-04-05T19:38:15.480Z,8.80
2023-04-05T19:40:43.933Z,10.73
2023-04-05T19:43:11.469Z,6.90
2023-04-05T19:45:38.259Z,7.30
2023-04-05T19:48:31.503Z,7.53
2023-04-05T19:50:59.178Z,10.10
2023-04-05T19:53:38.694Z,8.70
2023-04-05T19:56:19.367Z,10.70
2023-04-05T19:58:46.975Z,8.27
2023-04-05T20:01:37.534Z,9.83
2023-04-05T20:04:14.531Z,10.63
2023-04-05T20:06:42.336Z,7.23
2023-04-05T20:09:14.932Z,6.90
2023-04-05T20:11:51.941Z,7.43
2023-04-05T20:14:25.326Z,10.00
2023-04-05T20:16:51.962Z,7.00
2023-04-05T20:19:28.257Z,9.17
2023-04-05T20:22:06.508Z,8.90
2023-04-05T20:24:33.537Z,9.43
2023-04-05T20:27:01.839Z,8.20
2023-04-05T20:29:32.243Z,9.70
2023-04-05T20:31:58.930Z,8.90
2023-04-05T20:34:31.301Z,11.30
2023-04-05T20:37:02.051Z,7.00
2023-04-05T20:39:29.556Z,8.07
2023-04-05T20:41:56.629Z,10.87
2023-04-05T20:44:23.750Z,10.30
2023-04-05T20:46:51.781Z,8.00
2023-04-05T20:49:19.326Z,10.33
2023-04-05T20:51:47.177Z,10.60
2023-04-05T20:54:13.779Z,9.63
2023-04-05T20:56:40.918Z,8.73
2023-04-05T20:59:07.824Z,11.23
2023-04-05T21:01:37.669Z,11.00
2023-04-05T21:04:05.046Z,9.13
2023-04-05T21:06:31.962Z,9.13
2023-04-05T21:08:58.386Z,8.37
2023-04-05T21:11:24.841Z,11.63
2023-04-05T21:13:51.239Z,13.07
2023-04-05T21:16:17.902Z,10.83
2023-04-05T21:18:44.500Z,10.17
2023-04-05T21:21:11.000Z,8.70
2023-04-05T21:23:37.461Z,10.13
2023-04-05T21:26:06.004Z,11.77
2023-04-05T21:28:33.576Z,8.20
2023-04-05T21:31:01.458Z,9.80
2023-04-05T21:33:27.973Z,7.93
2023-04-05T21:35:55.510Z,10.73
2023-04-05T21:38:21.914Z,10.10
2023-04-05T21:40:50.814Z,8.07
2023-04-05T21:43:17.344Z,12.70
2023-04-05T21:45:43.780Z,9.60
2023-04-05T21:48:10.329Z,9.93
2023-04-05T21:50:37.446Z,9.73
2023-04-05T21:53:05.236Z,8.27
2023-04-05T21:55:32.063Z,11.07
2023-04-05T21:57:58.569Z,10.40
2023-04-05T22:00:25.001Z,9.20
2023-04-05T22:02:52.066Z,12.00
2023-04-05T22:07:48.815Z,8.80
2023-04-05T22:10:15.407Z,8.87
2023-04-05T22:12:41.865Z,11.03
2023-04-05T22:15:08.580Z,10.27
2023-04-05T22:17:36.320Z,9.47
2023-04-05T22:20:02.836Z,10.50
2023-04-05T22:22:29.149Z,9.37
2023-04-05T22:24:55.949Z,12.60
2023-04-05T22:27:22.383Z,11.47
2023-04-05T22:29:49.847Z,10.37
2023-04-05T22:32:16.439Z,12.10
2023-04-05T22:34:43.411Z,10.67
2023-04-05T22:37:10.621Z,12.23
2023-04-05T22:39:36.994Z,14.03
2023-04-05T22:42:03.566Z,16.10
2023-04-05T22:44:30.004Z,12.97
2023-04-05T22:46:56.333Z,15.60
2023-04-05T22:49:23.748Z,11.73
2023-04-05T22:51:50.278Z,15.97
2023-04-05T22:54:16.900Z,18.83
2023-04-05T22:56:43.236Z,13.30
2023-04-05T22:59:10.039Z,15.07
2023-04-05T23:01:36.532Z,13.97
2023-04-05T23:04:02.968Z,13.70
2023-04-05T23:06:30.033Z,13.30
2023-04-05T23:08:56.632Z,14.50
2023-04-05T23:11:23.198Z,15.50
2023-04-05T23:13:51.354Z,12.60
2023-04-05T23:16:21.718Z,13.57
2023-04-05T23:18:50.440Z,14.67
2023-04-05T23:21:17.168Z,12.97
2023-04-05T23:23:44.190Z,13.00
2023-04-05T23:26:10.874Z,10.73
2023-04-05T23:28:37.780Z,13.83
2023-04-05T23:31:04.405Z,14.17
2023-04-05T23:33:31.342Z,15.47
2023-04-05T23:35:57.814Z,12.00
2023-04-05T23:38:25.224Z,13.23
2023-04-05T23:40:53.898Z,15.43
2023-04-05T23:43:22.691Z,13.70
2023-04-05T23:45:49.639Z,13.83
2023-04-05T23:48:17.142Z,11.17
2023-04-05T23:50:43.788Z,15.60
2023-04-05T23:53:11.755Z,13.67
2023-04-05T23:55:43.357Z,13.60
2023-04-05T23:58:12.012Z,12.57
